Buoy 46770

sailwx.info

Track history (hours):
 
Tides and Currents Weather Stations Pressure Air Temp Water Temp Dewpoint Dewpoint Depression Visibility Wind Speed Wind Dir Waves Ship Positions

Drifting buoy 46770

Last reported at 2015-Mar-30 18:30 UTC. Time now 2015-Apr-01 07:59 UTC.
Position N 52°10' W 174°31'.

Barometer 1007.2 mb
Water temperature -0.2 ° C

Date/timePositionNaut miles runAvg speedWind from/ knotsBaromVisibWave heightAir tempDewpointWater temp
2015-Mar-30 18:30N 52°10' W 174°31'0 0.1 1007.2 -0.2
2015-Mar-30 16:30N 52°10' W 174°32'0 0.1 1007.6 0.4
2015-Mar-30 15:30N 52°10' W 174°32'0 0.0 1007.8 1.1
2015-Mar-30 13:30N 52°10' W 174°32'0 0.0 1008.3 2.0
2015-Mar-30 08:30N 52°10' W 174°31'0 0.2 1007.6 1.6
2015-Mar-30 07:30N 52°10' W 174°32'0 0.1 1007.4 2.3
2015-Mar-30 03:30N 52°10' W 174°32'0 0.2 1007.1 8.8
2015-Mar-30 01:30N 52°10' W 174°32'0 0.3 1008.0 6.8
2015-Mar-30 00:30N 52°10' W 174°32'0 0.2 1008.4 5.0
2015-Mar-29 23:30N 52°10' W 174°32'0 0.1 1008.6 4.5
2015-Mar-29 22:30N 52°10' W 174°32'0 0.0 1008.7 3.8
2015-Mar-29 18:30N 52°10' W 174°31'0 0.1 1008.0 0.3
2015-Mar-29 17:30N 52°10' W 174°32'0 0.2 1007.7 0.8
2015-Mar-29 16:30N 52°10' W 174°32'0 0.2 1007.3 0.8
2015-Mar-29 15:30N 52°10' W 174°31'0 0.0 1007.1 0.6
2015-Mar-29 13:30N 52°10' W 174°31'0 0.1 1007.2 1.1
2015-Mar-29 12:30N 52°10' W 174°32'0 0.0 1007.3 1.2
2015-Mar-29 04:30N 52°10' W 174°32'0 0.3 1006.2 2.4
2015-Mar-29 03:30N 52°10' W 174°31'0 0.1 1005.9 2.3
2015-Mar-29 00:30N 52°10' W 174°32'0 0.0 1005.8 1.0
2015-Mar-28 22:30N 52°10' W 174°32'0 0.0 1005.5 1.9
2015-Mar-28 20:30N 52°10' W 174°32'0 0.1 1005.1 2.4
2015-Mar-28 16:30N 52°10' W 174°32'2 0.3 1003.4 1.0
2015-Mar-28 07:30N 52°13' W 174°32'1 1.3 1000.6 4.2
2015-Mar-28 06:30N 52°14' W 174°32'2 0.4 1000.1 4.2
2015-Mar-28 02:30N 52°15' W 174°34'1 1.2 997.7 4.2
2015-Mar-28 01:30N 52°16' W 174°36'1 0.5 997.5 4.1
2015-Mar-27 23:30N 52°16' W 174°37'2 0.8 997.1 4.2
2015-Mar-27 21:30N 52°18' W 174°36'1 0.7 996.6 4.2
2015-Mar-27 19:30N 52°19' W 174°36'2 0.8 995.9 4.1
2015-Mar-27 17:30N 52°21' W 174°36'1 0.6 995.3 4.1
2015-Mar-27 16:30N 52°21' W 174°36'2 0.8 995.5 4.1
2015-Mar-27 14:30N 52°23' W 174°37'0 0.0 995.2 4.2
2015-Mar-27 13:30N 52°23' W 174°37'2 0.7 995.1 4.2
2015-Mar-27 10:30N 52°25' W 174°38'1 0.4 995.5 4.0
2015-Mar-27 07:30N 52°26' W 174°38'2 0.6 996.2 4.0
2015-Mar-27 03:30N 52°28' W 174°36'2 0.7 996.3 4.0
2015-Mar-27 00:30N 52°29' W 174°34'14 0.8 997.6 4.2
2015-Mar-26 07:30N 52°42' W 174°24'3 0.8 1003.3 3.8
2015-Mar-26 04:30N 52°45' W 174°23'7 0.7 1003.6 3.9
2015-Mar-25 17:30N 52°51' W 174°17'1 0.6 1004.9 3.9
2015-Mar-25 16:30N 52°52' W 174°17'1 0.8 1005.0 3.9
2015-Mar-25 15:30N 52°52' W 174°17'2 0.6 1005.2 3.9
2015-Mar-25 11:30N 52°54' W 174°20'2 0.2 1006.0 3.8
2015-Mar-25 04:30N 52°55' W 174°18'1 0.8 1005.5 3.9
2015-Mar-25 03:30N 52°56' W 174°17'1 1.1 1005.4 3.9
2015-Mar-25 02:30N 52°57' W 174°17'0 0.1 1005.3 3.9
2015-Mar-25 01:30N 52°57' W 174°17'2 0.6 1005.2 3.9
2015-Mar-24 21:30N 52°59' W 174°20'1 0.2 1005.1 3.8
2015-Mar-24 17:30N 52°59' W 174°18'0 0.2 1005.0 3.8
2015-Mar-24 16:30N 52°59' W 174°18'2 0.9 1004.9 3.8
2015-Mar-24 14:30N 53°01' W 174°17'4 0.2 1005.0 3.8
2015-Mar-23 19:30N 53°05' W 174°18'1 0.1 1008.1 3.9
2015-Mar-23 14:30N 53°05' W 174°17'0 0.0 1008.2 3.9
2015-Mar-23 13:30N 53°05' W 174°17'1 0.1 1008.7 3.9
2015-Mar-23 05:30N 53°05' W 174°16'0 0.3 1010.0 3.9
2015-Mar-23 04:30N 53°05' W 174°16'1 0.3 1010.0 3.9
2015-Mar-23 01:30N 53°05' W 174°14'0 0.2 1010.5 3.9
2015-Mar-23 00:30N 53°05' W 174°14'0 0.0 1011.0 3.8
2015-Mar-22 16:30N 53°06' W 174°14'1 0.1 1011.0 3.8
2015-Mar-22 06:30N 53°06' W 174°14'0 0.2 1010.8 3.8
2015-Mar-22 04:30N 53°06' W 174°14'0 0.2 1010.6 3.8
2015-Mar-22 02:30N 53°06' W 174°13'1 0.1 1010.3 3.8
2015-Mar-21 21:30N 53°06' W 174°13'1 0.1 1010.0 3.9
2015-Mar-21 07:30N 53°06' W 174°15'2 0.3 1006.9 3.9
2015-Mar-20 23:30N 53°05' W 174°11'   1004.8 3.9
Track history (hours):
 
Tides and Currents Weather Stations Pressure Air Temp Water Temp Dewpoint Dewpoint Depression Visibility Wind Speed Wind Dir Waves Ship Positions

Drifting buoy 46770

Last reported at 2015-Mar-30 18:30 UTC. Time now 2015-Apr-01 07:59 UTC.
Position N 52°10' W 174°31'.

Barometer 1007.2 mb
Water temperature -0.2 ° C

Date/timePositionNaut miles runAvg speedWind from/ knotsBaromVisibWave heightAir tempDewpointWater temp
2015-Mar-30 18:30N 52°10' W 174°31'0 0.1 1007.2 -0.2
2015-Mar-30 16:30N 52°10' W 174°32'0 0.1 1007.6 0.4
2015-Mar-30 15:30N 52°10' W 174°32'0 0.0 1007.8 1.1
2015-Mar-30 13:30N 52°10' W 174°32'0 0.0 1008.3 2.0
2015-Mar-30 08:30N 52°10' W 174°31'0 0.2 1007.6 1.6
2015-Mar-30 07:30N 52°10' W 174°32'0 0.1 1007.4 2.3
2015-Mar-30 03:30N 52°10' W 174°32'0 0.2 1007.1 8.8
2015-Mar-30 01:30N 52°10' W 174°32'0 0.3 1008.0 6.8
2015-Mar-30 00:30N 52°10' W 174°32'0 0.2 1008.4 5.0
2015-Mar-29 23:30N 52°10' W 174°32'0 0.1 1008.6 4.5
2015-Mar-29 22:30N 52°10' W 174°32'0 0.0 1008.7 3.8
2015-Mar-29 18:30N 52°10' W 174°31'0 0.1 1008.0 0.3
2015-Mar-29 17:30N 52°10' W 174°32'0 0.2 1007.7 0.8
2015-Mar-29 16:30N 52°10' W 174°32'0 0.2 1007.3 0.8
2015-Mar-29 15:30N 52°10' W 174°31'0 0.0 1007.1 0.6
2015-Mar-29 13:30N 52°10' W 174°31'0 0.1 1007.2 1.1
2015-Mar-29 12:30N 52°10' W 174°32'0 0.0 1007.3 1.2
2015-Mar-29 04:30N 52°10' W 174°32'0 0.3 1006.2 2.4
2015-Mar-29 03:30N 52°10' W 174°31'0 0.1 1005.9 2.3
2015-Mar-29 00:30N 52°10' W 174°32'0 0.0 1005.8 1.0
2015-Mar-28 22:30N 52°10' W 174°32'0 0.0 1005.5 1.9
2015-Mar-28 20:30N 52°10' W 174°32'0 0.1 1005.1 2.4
2015-Mar-28 16:30N 52°10' W 174°32'2 0.3 1003.4 1.0
2015-Mar-28 07:30N 52°13' W 174°32'1 1.3 1000.6 4.2
2015-Mar-28 06:30N 52°14' W 174°32'2 0.4 1000.1 4.2
2015-Mar-28 02:30N 52°15' W 174°34'1 1.2 997.7 4.2
2015-Mar-28 01:30N 52°16' W 174°36'1 0.5 997.5 4.1
2015-Mar-27 23:30N 52°16' W 174°37'2 0.8 997.1 4.2
2015-Mar-27 21:30N 52°18' W 174°36'1 0.7 996.6 4.2
2015-Mar-27 19:30N 52°19' W 174°36'2 0.8 995.9 4.1
2015-Mar-27 17:30N 52°21' W 174°36'1 0.6 995.3 4.1
2015-Mar-27 16:30N 52°21' W 174°36'2 0.8 995.5 4.1
2015-Mar-27 14:30N 52°23' W 174°37'0 0.0 995.2 4.2
2015-Mar-27 13:30N 52°23' W 174°37'2 0.7 995.1 4.2
2015-Mar-27 10:30N 52°25' W 174°38'1 0.4 995.5 4.0
2015-Mar-27 07:30N 52°26' W 174°38'2 0.6 996.2 4.0
2015-Mar-27 03:30N 52°28' W 174°36'2 0.7 996.3 4.0
2015-Mar-27 00:30N 52°29' W 174°34'14 0.8 997.6 4.2
2015-Mar-26 07:30N 52°42' W 174°24'3 0.8 1003.3 3.8
2015-Mar-26 04:30N 52°45' W 174°23'7 0.7 1003.6 3.9
2015-Mar-25 17:30N 52°51' W 174°17'1 0.6 1004.9 3.9
2015-Mar-25 16:30N 52°52' W 174°17'1 0.8 1005.0 3.9
2015-Mar-25 15:30N 52°52' W 174°17'2 0.6 1005.2 3.9
2015-Mar-25 11:30N 52°54' W 174°20'2 0.2 1006.0 3.8
2015-Mar-25 04:30N 52°55' W 174°18'1 0.8 1005.5 3.9
2015-Mar-25 03:30N 52°56' W 174°17'1 1.1 1005.4 3.9
2015-Mar-25 02:30N 52°57' W 174°17'0 0.1 1005.3 3.9
2015-Mar-25 01:30N 52°57' W 174°17'2 0.6 1005.2 3.9
2015-Mar-24 21:30N 52°59' W 174°20'1 0.2 1005.1 3.8
2015-Mar-24 17:30N 52°59' W 174°18'0 0.2 1005.0 3.8
2015-Mar-24 16:30N 52°59' W 174°18'2 0.9 1004.9 3.8
2015-Mar-24 14:30N 53°01' W 174°17'4 0.2 1005.0 3.8
2015-Mar-23 19:30N 53°05' W 174°18'1 0.1 1008.1 3.9
2015-Mar-23 14:30N 53°05' W 174°17'0 0.0 1008.2 3.9
2015-Mar-23 13:30N 53°05' W 174°17'1 0.1 1008.7 3.9
2015-Mar-23 05:30N 53°05' W 174°16'0 0.3 1010.0 3.9
2015-Mar-23 04:30N 53°05' W 174°16'1 0.3 1010.0 3.9
2015-Mar-23 01:30N 53°05' W 174°14'0 0.2 1010.5 3.9
2015-Mar-23 00:30N 53°05' W 174°14'0 0.0 1011.0 3.8
2015-Mar-22 16:30N 53°06' W 174°14'1 0.1 1011.0 3.8
2015-Mar-22 06:30N 53°06' W 174°14'0 0.2 1010.8 3.8
2015-Mar-22 04:30N 53°06' W 174°14'0 0.2 1010.6 3.8
2015-Mar-22 02:30N 53°06' W 174°13'1 0.1 1010.3 3.8
2015-Mar-21 21:30N 53°06' W 174°13'1 0.1 1010.0 3.9
2015-Mar-21 07:30N 53°06' W 174°15'2 0.3 1006.9 3.9
2015-Mar-20 23:30N 53°05' W 174°11'   1004.8 3.9

Dump ship's entire track history